KCWA/CWA METAR and TAF weather

Enter ICAO airport designator
Station Type Date Time Source
KCWA METAR 2019/12/11 14:47 UTC NOAA

KCWA 111447Z 28011KT 10SM SKC M22/M25 A3031


Station Type Date Time Source
KCWA Decoded METAR 2019/12/11 14:47 UTC NOAA

Mosinee / Central Wisconsin, WI, United States (KCWA) 44-47N 089-40W
Dec 11, 2019 - 09:47 AM EST / 2019.12.11 1447 UTC
Wind: from the W (280 degrees) at 13 MPH (11 KT):0
Visibility: 10 mile(s):0
Sky conditions: clear
Temperature: -7 F (-22 C)
Windchill: -27 F (-33 C):2
Dew Point: -13 F (-25 C)
Relative Humidity: 76%
Pressure (altimeter): 30.31 in. Hg (1026 hPa)
ob: KCWA 111447Z 28011KT 10SM SKC M22/M25 A3031
cycle: 15

Station Type Date Time Source
KCWA TAF 2019/12/11 12:27 UTC NOAA

TAF KCWA 111124Z 1112/1212 28009KT P6SM SKC
FM112300 VRB03KT P6SM SCT250
FM120300 VRB03KT P6SM BKN080
FM120600 VRB03KT P6SM -SN OVC050
FM120900 11007KT 4SM -SN SCT020 OVC035
TEMPO 1211/1212 2SM -SN OVC020

Example: see airport list